createdAt,value
2019-06-07T00:02:18.964Z,93.60
2019-06-07T00:04:48.758Z,93.70
2019-06-07T00:07:21.817Z,93.90
2019-06-07T00:09:49.820Z,93.80
2019-06-07T00:12:21.592Z,93.80
2019-06-07T00:14:50.775Z,94.20
2019-06-07T00:17:20.586Z,94.00
2019-06-07T00:19:50.550Z,94.00
2019-06-07T00:22:32.202Z,93.90
2019-06-07T00:24:51.460Z,94.20
2019-06-07T00:27:22.626Z,93.80
2019-06-07T00:29:53.544Z,93.90
2019-06-07T00:32:23.152Z,94.20
2019-06-07T00:34:52.759Z,94.30
2019-06-07T00:37:25.131Z,94.70
2019-06-07T00:40:13.417Z,94.60
2019-06-07T00:42:25.065Z,94.50
2019-06-07T00:44:54.683Z,94.40
2019-06-07T00:47:25.715Z,94.50
2019-06-07T00:49:55.527Z,94.80
2019-06-07T00:53:12.820Z,94.70
2019-06-07T00:54:56.365Z,94.40
2019-06-07T00:57:25.992Z,93.90
2019-06-07T00:59:55.802Z,93.90
2019-06-07T01:02:28.982Z,94.00
2019-06-07T01:04:56.778Z,94.20
2019-06-07T01:07:26.472Z,93.80
2019-06-07T01:09:56.078Z,93.90
2019-06-07T01:12:27.023Z,93.70
2019-06-07T01:14:57.210Z,93.70
2019-06-07T01:17:43.872Z,93.60
2019-06-07T01:20:00.761Z,93.30
2019-06-07T01:22:30.472Z,93.30
2019-06-07T01:25:00.178Z,93.20
2019-06-07T01:27:29.888Z,93.20
2019-06-07T01:29:59.596Z,93.00
2019-06-07T01:32:31.786Z,93.60
2019-06-07T01:35:00.554Z,93.30
2019-06-07T01:37:30.519Z,93.30
2019-06-07T01:40:00.282Z,93.00
2019-06-07T01:42:31.068Z,93.20
2019-06-07T01:45:02.251Z,92.90
2019-06-07T01:47:32.484Z,93.10
2019-06-07T01:50:02.096Z,93.30
2019-06-07T01:52:31.804Z,93.80
2019-06-07T01:55:01.521Z,93.40
2019-06-07T01:57:45.636Z,93.20
2019-06-07T02:00:02.678Z,93.30
2019-06-07T02:02:33.733Z,93.40
2019-06-07T02:05:04.354Z,93.60
2019-06-07T02:07:34.063Z,93.70
2019-06-07T02:10:05.821Z,93.80
2019-06-07T02:12:42.899Z,93.90
2019-06-07T02:15:08.344Z,93.70
2019-06-07T02:17:38.641Z,93.50
2019-06-07T02:20:08.961Z,93.50
2019-06-07T02:22:38.675Z,93.60
2019-06-07T02:27:40.962Z,93.80
2019-06-07T02:32:42.978Z,94.10
2019-06-07T02:35:12.668Z,93.90
2019-06-07T02:37:42.258Z,94.00
2019-06-07T02:40:12.531Z,94.00
2019-06-07T02:42:42.972Z,94.30
2019-06-07T02:45:13.119Z,94.20
2019-06-07T02:47:44.591Z,94.60
2019-06-07T02:50:15.754Z,94.20
2019-06-07T02:52:45.539Z,94.30
2019-06-07T02:55:16.178Z,94.60
2019-06-07T02:57:45.781Z,94.30
2019-06-07T03:01:00.753Z,94.00
2019-06-07T03:03:06.602Z,93.80
2019-06-07T03:05:40.765Z,93.60
2019-06-07T03:08:09.907Z,93.90
2019-06-07T03:10:42.046Z,94.20
2019-06-07T03:13:13.946Z,94.00
2019-06-07T03:15:50.274Z,93.90
2019-06-07T03:18:36.558Z,94.00
2019-06-07T03:21:08.879Z,93.90
2019-06-07T03:23:39.969Z,94.10
2019-06-07T03:26:10.657Z,93.60
2019-06-07T03:28:40.468Z,93.60
2019-06-07T03:31:10.078Z,93.50
2019-06-07T03:33:44.465Z,93.50
2019-06-07T03:36:23.343Z,93.50
2019-06-07T03:38:42.176Z,93.60
2019-06-07T03:41:12.808Z,93.70
2019-06-07T03:43:42.521Z,93.70
2019-06-07T03:46:12.229Z,93.70
2019-06-07T03:48:41.948Z,93.60
2019-06-07T03:51:24.276Z,93.40
2019-06-07T03:53:42.896Z,93.40
2019-06-07T03:56:13.154Z,93.70
2019-06-07T03:58:49.526Z,93.40
2019-06-07T04:01:14.692Z,93.90
2019-06-07T04:03:51.438Z,93.40
2019-06-07T04:06:15.714Z,93.60
2019-06-07T04:08:45.562Z,94.50
2019-06-07T04:11:15.170Z,93.30
2019-06-07T04:13:44.937Z,92.90
2019-06-07T04:16:14.693Z,93.00
2019-06-07T04:18:44.700Z,92.80
2019-06-07T04:21:14.321Z,92.90
2019-06-07T04:23:45.658Z,93.30
2019-06-07T04:26:15.277Z,93.50
2019-06-07T04:31:16.335Z,93.20
2019-06-07T04:33:46.051Z,93.90
2019-06-07T04:36:15.742Z,92.80
2019-06-07T04:38:46.682Z,93.40
2019-06-07T04:41:18.567Z,92.90
2019-06-07T04:43:49.177Z,93.10
2019-06-07T04:46:21.765Z,93.00
2019-06-07T04:48:52.056Z,93.10
2019-06-07T04:51:24.164Z,93.80
2019-06-07T04:53:53.865Z,94.00
2019-06-07T04:56:23.475Z,94.10
2019-06-07T04:58:53.082Z,94.00
2019-06-07T05:01:27.792Z,94.00
2019-06-07T05:03:54.038Z,93.50
2019-06-07T05:06:23.651Z,93.50
2019-06-07T05:08:54.381Z,93.50
2019-06-07T05:11:23.987Z,93.00
2019-06-07T05:13:53.598Z,93.00
2019-06-07T05:16:26.175Z,92.80
2019-06-07T05:18:55.786Z,90.10
2019-06-07T05:21:25.391Z,79.90
2019-06-07T05:24:06.520Z,72.20
2019-06-07T05:26:26.246Z,67.90
2019-06-07T05:28:55.854Z,64.30
2019-06-07T05:31:25.567Z,71.70
2019-06-07T05:33:55.275Z,67.30
2019-06-07T05:36:24.880Z,63.80
2019-06-07T05:38:54.702Z,61.40
2019-06-07T05:41:24.405Z,59.30
2019-06-07T05:44:11.701Z,57.80
2019-06-07T05:46:25.263Z,56.40
2019-06-07T05:48:55.893Z,55.10
2019-06-07T05:51:25.500Z,54.30
2019-06-07T05:53:55.108Z,59.60
2019-06-07T05:56:24.821Z,65.90
2019-06-07T05:58:55.040Z,64.50
2019-06-07T06:01:42.988Z,60.50
2019-06-07T06:03:55.997Z,64.80
2019-06-07T06:06:25.707Z,69.20
2019-06-07T06:09:12.941Z,69.50
2019-06-07T06:11:43.320Z,70.00
2019-06-07T06:14:07.575Z,69.70
2019-06-07T06:16:30.283Z,69.50
2019-06-07T06:18:59.891Z,60.10
2019-06-07T06:21:29.614Z,55.20
2019-06-07T06:23:59.209Z,53.00
2019-06-07T06:26:28.818Z,51.20
2019-06-07T06:28:58.426Z,50.50
2019-06-07T06:31:28.188Z,49.80
2019-06-07T06:33:57.846Z,48.10
2019-06-07T06:36:27.454Z,48.70
2019-06-07T06:38:57.065Z,49.60
2019-06-07T06:41:26.670Z,49.50
2019-06-07T06:43:56.277Z,48.60
2019-06-07T06:46:39.100Z,49.20
2019-06-07T06:48:57.140Z,49.30
2019-06-07T06:51:26.740Z,49.20
2019-06-07T06:53:56.655Z,49.70
2019-06-07T06:56:26.264Z,50.40
2019-06-07T07:01:27.221Z,50.00
2019-06-07T07:04:10.658Z,52.10
2019-06-07T07:06:28.502Z,52.70
2019-06-07T08:27:25.824Z,61.40
2019-06-07T08:30:03.771Z,66.70
2019-06-07T08:32:17.965Z,65.00
2019-06-07T08:34:51.809Z,63.70
2019-06-07T08:37:18.821Z,61.40
2019-06-07T08:39:49.779Z,62.40
2019-06-07T08:42:25.284Z,63.20
2019-06-07T08:44:53.600Z,61.50
2019-06-07T08:47:22.402Z,61.50
2019-06-07T08:49:55.980Z,60.50
2019-06-07T08:52:23.638Z,60.40
2019-06-07T08:54:54.876Z,59.90
2019-06-07T08:57:24.696Z,61.20
2019-06-07T08:59:56.621Z,60.50
2019-06-07T09:02:25.940Z,62.70
2019-06-07T09:04:58.606Z,62.80
2019-06-07T09:07:27.017Z,60.70
2019-06-07T09:10:03.453Z,61.80
2019-06-07T09:12:27.872Z,61.40
2019-06-07T09:15:12.248Z,60.40
2019-06-07T09:17:28.833Z,60.10
2019-06-07T09:20:05.669Z,57.20
2019-06-07T09:22:29.722Z,58.60
2019-06-07T09:25:02.827Z,59.00
2019-06-07T09:27:30.643Z,60.20
2019-06-07T09:30:05.727Z,57.70
2019-06-07T09:32:33.032Z,57.90
2019-06-07T09:35:10.523Z,57.10
2019-06-07T09:40:21.843Z,56.80
2019-06-07T09:42:38.118Z,56.80
2019-06-07T09:45:11.681Z,56.20
2019-06-07T09:47:39.488Z,54.80
2019-06-07T09:50:12.168Z,54.60
2019-06-07T09:52:57.734Z,55.60
2019-06-07T09:55:23.130Z,56.50
2019-06-07T09:57:43.244Z,55.70
2019-06-07T10:00:40.057Z,56.00
2019-06-07T10:02:47.791Z,56.20
2019-06-07T10:05:17.600Z,55.10
2019-06-07T10:08:02.481Z,57.80
2019-06-07T10:12:49.903Z,55.30
2019-06-07T10:15:19.828Z,54.20
2019-06-07T10:17:49.427Z,54.20
2019-06-07T10:20:19.299Z,54.20
2019-06-07T10:22:48.949Z,54.10
2019-06-07T10:25:18.658Z,53.30
2019-06-07T10:27:49.497Z,53.00
2019-06-07T10:30:21.601Z,52.40
2019-06-07T10:32:52.409Z,51.20
2019-06-07T10:35:22.212Z,53.10
2019-06-07T10:37:52.944Z,51.70
2019-06-07T10:40:22.655Z,51.70
2019-06-07T10:42:52.268Z,53.70
2019-06-07T10:45:21.973Z,52.80
2019-06-07T10:47:51.583Z,53.50
2019-06-07T10:50:21.963Z,52.60
2019-06-07T10:52:51.618Z,50.00
2019-06-07T10:55:21.430Z,50.80
2019-06-07T10:57:51.143Z,50.60
2019-06-07T11:00:21.353Z,49.90
2019-06-07T11:02:54.292Z,49.30
2019-06-07T11:05:22.322Z,47.50
2019-06-07T11:07:52.064Z,48.80
2019-06-07T11:10:21.842Z,49.60
2019-06-07T11:12:51.455Z,49.40
2019-06-07T11:15:22.595Z,50.00
2019-06-07T11:17:52.311Z,47.30
2019-06-07T11:20:22.119Z,48.00
2019-06-07T11:22:51.724Z,48.00
2019-06-07T11:25:21.538Z,46.30
2019-06-07T11:27:51.250Z,47.60
2019-06-07T11:30:21.270Z,46.30
2019-06-07T11:32:50.943Z,47.70
2019-06-07T11:35:20.781Z,46.00
2019-06-07T11:37:50.501Z,48.30
2019-06-07T11:40:34.947Z,47.50
2019-06-07T11:42:52.855Z,46.40
2019-06-07T11:45:22.808Z,47.00
2019-06-07T11:47:52.414Z,47.50
2019-06-07T11:50:22.123Z,46.50
2019-06-07T11:52:51.731Z,45.20
2019-06-07T11:55:21.625Z,45.00
2019-06-07T11:57:51.254Z,43.90
2019-06-07T12:00:21.571Z,45.40
2019-06-07T12:02:51.291Z,45.90
2019-06-07T12:05:21.004Z,46.40
2019-06-07T12:07:50.615Z,46.30
2019-06-07T12:10:22.772Z,44.60
2019-06-07T12:12:51.769Z,43.90
2019-06-07T12:15:21.484Z,45.60
2019-06-07T12:17:51.088Z,45.00
2019-06-07T12:20:22.231Z,45.60
2019-06-07T12:22:52.765Z,44.90
2019-06-07T12:25:25.053Z,43.30
2019-06-07T12:27:53.731Z,41.30
2019-06-07T12:30:27.670Z,40.70
2019-06-07T12:32:54.675Z,43.90
2019-06-07T12:35:24.489Z,42.80
2019-06-07T12:37:54.080Z,43.20
2019-06-07T12:40:30.620Z,42.90
2019-06-07T12:42:55.053Z,42.10
2019-06-07T12:45:42.851Z,42.30
2019-06-07T12:47:56.119Z,41.80
2019-06-07T12:50:41.891Z,42.40
2019-06-07T12:52:57.172Z,41.10
2019-06-07T12:55:26.782Z,42.80
2019-06-07T12:57:56.913Z,42.90
2019-06-07T13:00:26.617Z,41.10
2019-06-07T13:02:56.220Z,40.20
2019-06-07T13:05:25.929Z,40.60
2019-06-07T13:07:55.523Z,41.60
2019-06-07T13:10:25.252Z,39.20
2019-06-07T13:12:54.957Z,40.60
2019-06-07T13:15:26.079Z,39.00
2019-06-07T13:17:55.917Z,37.70
2019-06-07T13:20:25.626Z,35.90
2019-06-07T13:22:55.338Z,37.10
2019-06-07T13:25:41.174Z,35.40
2019-06-07T13:27:56.804Z,37.10
2019-06-07T13:30:26.872Z,35.60
2019-06-07T13:32:56.534Z,36.50
2019-06-07T13:35:29.367Z,35.70
2019-06-07T13:37:59.711Z,37.30
2019-06-07T13:40:29.043Z,37.20
2019-06-07T13:42:58.662Z,38.60
2019-06-07T13:45:28.362Z,38.00
2019-06-07T13:47:57.986Z,38.10
2019-06-07T13:50:28.269Z,38.90
2019-06-07T13:52:58.684Z,38.40
2019-06-07T13:55:28.429Z,38.80
2019-06-07T13:57:58.038Z,39.90
2019-06-07T14:00:28.488Z,40.30
2019-06-07T14:02:58.264Z,40.00
2019-06-07T14:05:29.047Z,40.80
2019-06-07T14:07:58.825Z,40.10
2019-06-07T14:10:29.556Z,38.10
2019-06-07T14:12:59.378Z,38.00
2019-06-07T14:15:32.629Z,36.90
2019-06-07T14:18:00.230Z,37.70
2019-06-07T14:20:34.105Z,37.70
2019-06-07T14:23:01.287Z,38.90
2019-06-07T14:25:31.438Z,38.90
2019-06-07T14:28:01.219Z,37.80
2019-06-07T14:30:32.504Z,39.50
2019-06-07T14:33:02.421Z,37.60
2019-06-07T14:35:33.684Z,37.10
2019-06-07T14:38:04.672Z,36.50
2019-06-07T14:40:34.279Z,36.80
2019-06-07T14:43:03.986Z,38.20
2019-06-07T14:45:34.348Z,37.90
2019-06-07T14:48:04.226Z,38.20
2019-06-07T14:50:34.494Z,38.20
2019-06-07T14:53:04.472Z,37.50
2019-06-07T14:55:35.195Z,38.70
2019-06-07T14:58:05.218Z,39.10
2019-06-07T15:00:42.715Z,39.10
2019-06-07T15:03:12.525Z,38.60
2019-06-07T15:05:42.343Z,38.70
2019-06-07T15:08:12.151Z,38.90
2019-06-07T15:10:41.877Z,39.00
2019-06-07T15:13:11.570Z,39.90
2019-06-07T15:15:41.180Z,38.90
2019-06-07T15:18:10.890Z,39.00
2019-06-07T15:20:40.499Z,38.30
2019-06-07T15:23:10.406Z,37.60
2019-06-07T15:26:28.661Z,37.40
2019-06-07T15:28:58.269Z,36.90
2019-06-07T15:31:27.928Z,37.60
2019-06-07T15:33:57.591Z,37.70
2019-06-07T15:36:28.237Z,37.30
2019-06-07T15:38:58.036Z,38.00
2019-06-07T15:41:28.861Z,38.10
2019-06-07T15:43:58.784Z,38.90
2019-06-07T15:46:29.445Z,37.40
2019-06-07T15:48:59.228Z,37.40
2019-06-07T15:51:30.550Z,38.90
2019-06-07T15:54:00.186Z,37.60
2019-06-07T15:56:30.480Z,36.90
2019-06-07T15:59:00.224Z,37.50
2019-06-07T16:01:31.101Z,37.80
2019-06-07T16:04:00.871Z,37.50
2019-06-07T16:06:31.971Z,38.30
2019-06-07T16:09:01.932Z,38.60
2019-06-07T16:11:34.570Z,39.70
2019-06-07T16:14:06.373Z,39.80
2019-06-07T16:16:37.061Z,39.30
2019-06-07T16:19:06.818Z,39.80
2019-06-07T16:21:37.353Z,39.20
2019-06-07T16:24:07.262Z,40.10
2019-06-07T16:26:38.182Z,42.30
2019-06-07T16:29:07.897Z,42.10
2019-06-07T16:31:38.730Z,42.40
2019-06-07T16:34:08.559Z,42.30
2019-06-07T16:36:38.412Z,43.90
2019-06-07T16:39:09.255Z,43.10
2019-06-07T16:41:40.408Z,42.20
2019-06-07T16:44:10.279Z,43.10
2019-06-07T16:46:40.621Z,43.20
2019-06-07T16:49:10.609Z,43.00
2019-06-07T16:51:41.268Z,43.10
2019-06-07T16:54:11.263Z,43.40
2019-06-07T16:56:44.361Z,43.80
2019-06-07T16:59:12.216Z,44.40
2019-06-07T17:01:43.074Z,44.60
2019-06-07T17:04:12.868Z,45.10
2019-06-07T17:06:43.685Z,44.80
2019-06-07T17:09:13.516Z,44.40
2019-06-07T17:11:44.243Z,44.70
2019-06-07T17:14:14.063Z,46.00
2019-06-07T17:16:44.434Z,46.60
2019-06-07T17:19:14.916Z,46.70
2019-06-07T17:21:45.424Z,47.00
2019-06-07T17:24:15.258Z,47.50
2019-06-07T17:26:45.524Z,51.30
2019-06-07T17:29:15.190Z,52.60
2019-06-07T17:31:46.297Z,53.70
2019-06-07T17:34:16.149Z,54.70
2019-06-07T17:36:46.421Z,55.20
2019-06-07T17:39:16.188Z,55.30
2019-06-07T17:41:58.635Z,55.60
2019-06-07T17:44:16.942Z,56.00
2019-06-07T17:46:47.607Z,56.20
2019-06-07T17:49:17.483Z,56.40
2019-06-07T17:51:48.031Z,56.40
2019-06-07T17:54:17.826Z,56.80
2019-06-07T17:56:48.277Z,56.90
2019-06-07T17:59:17.971Z,56.90
2019-06-07T18:02:07.101Z,57.30
2019-06-07T18:04:18.919Z,57.80
2019-06-07T18:06:49.765Z,57.70
2019-06-07T18:09:20.230Z,58.10
2019-06-07T18:11:50.042Z,58.40
2019-06-07T18:14:20.019Z,58.70
2019-06-07T18:16:50.577Z,59.50
2019-06-07T18:19:20.357Z,59.40
2019-06-07T18:21:55.260Z,59.50
2019-06-07T18:24:21.316Z,59.90
2019-06-07T18:26:50.944Z,60.30
2019-06-07T18:29:20.668Z,61.40
2019-06-07T18:31:50.757Z,62.30
2019-06-07T18:34:20.366Z,63.20
2019-06-07T18:36:51.061Z,64.30
2019-06-07T18:39:20.807Z,65.20
2019-06-07T18:41:51.825Z,65.90
2019-06-07T18:44:22.079Z,66.00
2019-06-07T18:46:52.253Z,66.40
2019-06-07T18:49:22.011Z,67.00
2019-06-07T18:52:09.324Z,67.80
2019-06-07T18:54:38.939Z,68.10
2019-06-07T18:57:08.633Z,68.30
2019-06-07T18:59:38.442Z,67.90
2019-06-07T19:02:08.373Z,68.10
2019-06-07T19:04:38.017Z,69.00
2019-06-07T19:07:07.592Z,69.30
2019-06-07T19:09:37.198Z,69.30
2019-06-07T19:12:06.905Z,69.30
2019-06-07T19:14:37.475Z,69.70
2019-06-07T19:17:08.398Z,69.80
2019-06-07T19:19:37.983Z,70.00
2019-06-07T19:22:07.796Z,69.70
2019-06-07T19:24:37.404Z,69.50
2019-06-07T19:27:07.119Z,69.70
2019-06-07T19:29:36.823Z,70.50
2019-06-07T19:32:06.534Z,70.40
2019-06-07T19:34:36.449Z,70.20
2019-06-07T19:37:06.160Z,69.80
2019-06-07T19:39:35.773Z,69.20
2019-06-07T19:42:05.585Z,69.00
2019-06-07T19:44:35.308Z,72.10
2019-06-07T19:47:05.005Z,71.40
2019-06-07T19:49:34.612Z,68.60
2019-06-07T19:52:04.324Z,69.80
2019-06-07T19:54:33.940Z,67.50
2019-06-07T19:57:03.723Z,68.00
2019-06-07T19:59:33.556Z,64.80
2019-06-07T20:02:04.191Z,67.00
2019-06-07T20:04:34.106Z,65.40
2019-06-07T20:07:05.587Z,64.80
2019-06-07T20:09:35.061Z,64.40
2019-06-07T20:12:05.180Z,65.10
2019-06-07T20:14:34.892Z,65.30
2019-06-07T20:17:05.731Z,66.20
2019-06-07T20:19:35.537Z,66.60
2019-06-07T20:22:05.604Z,66.20
2019-06-07T20:24:38.050Z,65.90
2019-06-07T20:27:06.825Z,65.40
2019-06-07T20:29:36.531Z,65.10
2019-06-07T20:32:06.245Z,64.90
2019-06-07T20:34:35.950Z,64.60
2019-06-07T20:37:07.439Z,64.30
2019-06-07T20:39:36.907Z,64.90
2019-06-07T20:42:07.817Z,64.80
2019-06-07T20:44:37.764Z,66.10
2019-06-07T20:47:08.406Z,65.20
2019-06-07T20:49:38.216Z,65.70
2019-06-07T20:52:08.612Z,66.10
2019-06-07T20:54:38.551Z,67.40
2019-06-07T20:57:08.906Z,67.60
2019-06-07T20:59:38.584Z,68.50
2019-06-07T21:02:09.566Z,68.10
2019-06-07T21:04:39.336Z,68.30
2019-06-07T21:07:10.174Z,68.90
2019-06-07T21:09:39.987Z,69.70
2019-06-07T21:12:09.931Z,69.60
2019-06-07T21:14:39.855Z,70.40
2019-06-07T21:17:10.348Z,70.20
2019-06-07T21:19:40.274Z,70.90
2019-06-07T21:22:11.043Z,71.40
2019-06-07T21:24:41.014Z,70.20
2019-06-07T21:27:11.401Z,71.70
2019-06-07T21:29:41.154Z,72.20
2019-06-07T21:32:11.772Z,71.50
2019-06-07T21:34:41.699Z,70.30
2019-06-07T21:37:12.145Z,71.40
2019-06-07T21:39:41.939Z,71.80
2019-06-07T21:42:12.346Z,70.90
2019-06-07T21:44:42.282Z,71.10
2019-06-07T21:47:12.741Z,71.00
2019-06-07T21:49:42.623Z,71.30
2019-06-07T21:52:12.912Z,71.40
2019-06-07T21:54:42.762Z,71.50
2019-06-07T21:57:13.212Z,71.60
2019-06-07T21:59:43.014Z,73.10
2019-06-07T22:02:13.735Z,75.90
2019-06-07T22:04:44.161Z,77.40
2019-06-07T22:07:13.789Z,78.20
2019-06-07T22:09:43.380Z,79.30
2019-06-07T22:12:14.156Z,78.90
2019-06-07T22:14:44.037Z,76.40
2019-06-07T22:17:14.517Z,73.90
2019-06-07T22:19:44.475Z,73.40
2019-06-07T22:22:14.905Z,72.90
2019-06-07T22:24:44.814Z,72.40
2019-06-07T22:27:15.578Z,72.50
2019-06-07T22:29:45.567Z,72.10
2019-06-07T22:32:15.276Z,72.20
2019-06-07T22:34:44.885Z,71.90
2019-06-07T22:37:16.450Z,71.80
2019-06-07T22:39:45.739Z,71.70
2019-06-07T22:42:15.350Z,71.60
2019-06-07T22:44:44.958Z,71.80
2019-06-07T22:47:15.941Z,72.30
2019-06-07T22:49:46.836Z,71.90
2019-06-07T22:52:17.311Z,71.20
2019-06-07T22:54:47.692Z,72.60
2019-06-07T22:57:18.948Z,72.90
2019-06-07T22:59:48.541Z,72.80
2019-06-07T23:02:18.850Z,72.10
2019-06-07T23:04:48.678Z,71.70
2019-06-07T23:07:19.238Z,71.00
2019-06-07T23:09:49.125Z,70.80
2019-06-07T23:12:19.572Z,70.20
2019-06-07T23:14:49.370Z,70.50
2019-06-07T23:17:20.625Z,70.80
2019-06-07T23:19:50.219Z,70.30
2019-06-07T23:22:20.159Z,70.30
2019-06-07T23:24:49.932Z,70.30
2019-06-07T23:27:20.806Z,70.50
2019-06-07T23:29:50.599Z,70.20
2019-06-07T23:32:21.544Z,70.60
2019-06-07T23:34:51.354Z,70.20
2019-06-07T23:37:21.304Z,70.10
2019-06-07T23:39:51.185Z,69.80
2019-06-07T23:42:21.838Z,70.70
2019-06-07T23:44:51.623Z,70.20
2019-06-07T23:47:22.400Z,70.10
2019-06-07T23:49:52.272Z,68.20
2019-06-07T23:52:22.133Z,70.70
2019-06-07T23:57:57.144Z,70.40
